Time;durP1;ratioP1;P1;durP2;ratioP2;P2;SDS_P1;SDS_P2;PMS_P1;PMS_P2;Temp;Humidity;BMP_temperature;BMP_pressure;BME280_temperature;BME280_humidity;BME280_pressure;Samples;Min_cycle;Max_cycle;Signal;HPM_P1;HPM_P2
2022/05/31 04:00:23;;;;;;;5.00;2.90;;;5.80;96.30;;;;;;6029118;23;20467;-75
2022/05/31 04:02:48;;;;;;;2.60;2.40;;;6.10;96.30;;;;;;4953045;29;20493;-75
2022/05/31 04:05:14;;;;;;;4.93;2.90;;;6.70;96.30;;;;;;4953772;29;20454;-77
2022/05/31 04:07:40;;;;;;;3.37;2.40;;;7.40;96.30;;;;;;4949438;29;20714;-74
2022/05/31 04:10:07;;;;;;;3.30;2.00;;;7.50;96.30;;;;;;4953414;29;20230;-75
2022/05/31 04:12:38;;;;;;;2.60;2.40;;;8.10;96.30;;;;;;4953743;29;20191;-75
2022/05/31 04:15:05;;;;;;;3.77;2.30;;;8.40;96.30;;;;;;4954435;29;20422;-77
2022/05/31 04:17:30;;;;;;;3.77;2.53;;;8.30;96.30;;;;;;4953650;29;20782;-77
2022/05/31 04:19:56;;;;;;;3.40;2.37;;;8.60;96.30;;;;;;4954028;29;20422;-78
2022/05/31 04:58:37;;;;;;;1.67;1.57;;;12.00;96.30;;;;;;5049522;23;20969;-77
2022/05/31 05:01:06;;;;;;;2.77;1.57;;;12.90;96.30;;;;;;4939678;29;20866;-77
2022/05/31 05:03:33;;;;;;;2.10;1.80;;;13.50;96.30;;;;;;4956432;29;20780;-77
2022/05/31 05:06:00;;;;;;;1.83;1.60;;;14.10;96.30;;;;;;4955745;29;21001;-77
2022/05/31 05:08:26;;;;;;;2.67;1.43;;;14.60;96.30;;;;;;4955929;29;20514;-77
2022/05/31 05:10:51;;;;;;;4.70;2.40;;;15.30;96.30;;;;;;4956275;29;20950;-77
2022/05/31 05:13:17;;;;;;;3.20;1.70;;;15.60;96.30;;;;;;4939115;29;20262;-78
2022/05/31 05:15:42;;;;;;;2.17;2.00;;;15.10;96.30;;;;;;4956773;29;20703;-77
2022/05/31 05:18:09;;;;;;;2.57;1.60;;;16.00;96.30;;;;;;4956376;29;20251;-76
2022/05/31 05:20:37;;;;;;;3.90;1.70;;;16.70;94.90;;;;;;4956379;29;20554;-76
2022/05/31 05:23:04;;;;;;;3.33;2.00;;;16.90;94.40;;;;;;4956258;29;20414;-76
2022/05/31 05:25:30;;;;;;;4.93;2.10;;;16.60;95.00;;;;;;4956172;29;20509;-76
2022/05/31 05:27:55;;;;;;;2.60;2.07;;;16.80;95.10;;;;;;4955561;29;20415;-76
2022/05/31 05:30:39;;;;;;;2.97;1.77;;;16.50;96.30;;;;;;4938939;29;20171;-75
2022/05/31 05:33:04;;;;;;;3.57;2.00;;;16.70;96.30;;;;;;4953315;28;20259;-78
2022/05/31 05:35:30;;;;;;;4.73;2.00;;;16.50;96.30;;;;;;4929733;28;20464;-75
2022/05/31 05:37:55;;;;;;;4.40;2.00;;;17.10;96.30;;;;;;4962767;28;20171;-75
2022/05/31 05:40:21;;;;;;;2.17;1.97;;;18.10;93.10;;;;;;4948978;29;20184;-76
2022/05/31 05:42:46;;;;;;;4.87;2.13;;;18.10;92.80;;;;;;4948711;29;20191;-76
2022/05/31 05:45:12;;;;;;;4.20;1.93;;;18.10;92.20;;;;;;4945754;29;20278;-75
2022/05/31 05:47:38;;;;;;;3.10;1.80;;;17.60;93.50;;;;;;4936433;29;20628;-75
2022/05/31 05:50:05;;;;;;;3.47;2.03;;;17.20;94.60;;;;;;4941573;29;20445;-75
2022/05/31 05:52:32;;;;;;;3.97;1.97;;;16.90;96.30;;;;;;4955028;29;20573;-76
2022/05/31 05:54:57;;;;;;;6.10;1.90;;;17.10;96.20;;;;;;4949044;29;20784;-76
2022/05/31 05:57:23;;;;;;;2.60;2.17;;;17.00;96.30;;;;;;4936370;29;20442;-76
2022/05/31 05:59:48;;;;;;;3.80;2.03;;;16.90;96.30;;;;;;4945186;29;20171;-77
2022/05/31 06:02:31;;;;;;;3.60;2.10;;;16.20;96.30;;;;;;4955582;29;20201;-76
2022/05/31 06:05:07;;;;;;;3.43;2.80;;;16.70;96.30;;;;;;4935939;29;20190;-77
2022/05/31 06:08:01;;;;;;;5.30;4.03;;;16.60;96.30;;;;;;4919259;29;20471;-79
2022/05/31 06:10:33;;;;;;;4.80;3.07;;;15.80;96.30;;;;;;4936106;29;20444;-77
2022/05/31 06:13:11;;;;;;;2.70;1.93;;;15.00;96.30;;;;;;4936183;29;20412;-76
2022/05/31 06:15:42;;;;;;;4.20;2.23;;;14.70;96.30;;;;;;4937262;28;20422;-78
2022/05/31 06:18:23;;;;;;;2.80;2.30;;;14.80;96.30;;;;;;4930422;29;20950;-76
2022/05/31 06:20:53;;;;;;;3.53;2.30;;;15.30;96.30;;;;;;4925579;29;20481;-76
2022/05/31 06:23:19;;;;;;;4.53;2.20;;;16.20;96.30;;;;;;4936705;29;20418;-76
2022/05/31 06:25:45;;;;;;;2.60;2.13;;;17.60;96.30;;;;;;4938685;29;20803;-80
2022/05/31 06:28:11;;;;;;;8.50;3.53;;;18.10;95.90;;;;;;4908052;29;20261;-80
2022/05/31 06:30:37;;;;;;;5.00;2.10;;;19.10;94.00;;;;;;4924945;29;20868;-81
2022/05/31 06:33:04;;;;;;;2.80;2.10;;;20.00;90.80;;;;;;4941915;29;20174;-80
2022/05/31 06:35:29;;;;;;;2.70;1.87;;;20.70;87.50;;;;;;4938640;29;20485;-81
2022/05/31 06:37:55;;;;;;;3.80;1.83;;;20.80;86.20;;;;;;4944205;29;20423;-81
2022/05/31 06:40:21;;;;;;;2.83;2.00;;;21.00;86.00;;;;;;4961839;29;20179;-81
2022/05/31 06:42:47;;;;;;;3.43;2.10;;;20.70;85.00;;;;;;4961832;29;20507;-81
2022/05/31 06:45:12;;;;;;;2.17;1.70;;;20.80;87.40;;;;;;4941938;29;20203;-81
2022/05/31 06:47:38;;;;;;;3.40;1.50;;;21.30;88.70;;;;;;4949098;29;20171;-82
2022/05/31 06:50:09;;;;;;;3.20;1.40;;;22.20;83.90;;;;;;4956150;29;20203;-80
2022/05/31 06:58:11;;;;;;;2.40;1.73;;;19.60;89.40;;;;;;4953809;29;20484;-81
2022/05/31 07:00:37;;;;;;;3.90;1.93;;;19.60;90.80;;;;;;4959088;29;20434;-81
2022/05/31 07:03:03;;;;;;;2.13;1.30;;;19.00;90.50;;;;;;4952001;29;20178;-80
2022/05/31 07:05:30;;;;;;;2.50;1.80;;;19.40;90.10;;;;;;4943129;29;20285;-80
2022/05/31 07:07:55;;;;;;;3.33;1.73;;;19.10;90.60;;;;;;4941975;29;20171;-81
2022/05/31 07:10:33;;;;;;;2.73;1.70;;;20.20;88.30;;;;;;4960705;29;20419;-81
2022/05/31 07:12:59;;;;;;;1.50;1.27;;;19.80;88.40;;;;;;4945562;29;20265;-81
2022/05/31 07:15:26;;;;;;;2.07;1.77;;;20.20;88.10;;;;;;4941640;28;21249;-80
2022/05/31 07:17:57;;;;;;;1.30;1.20;;;20.50;84.40;;;;;;4932452;29;20434;-80
2022/05/31 07:20:23;;;;;;;2.03;1.20;;;20.80;84.70;;;;;;4927440;28;21112;-80
2022/05/31 07:22:51;;;;;;;2.03;1.70;;;20.50;84.90;;;;;;4951370;29;20429;-80
2022/05/31 07:25:18;;;;;;;1.80;1.20;;;20.10;87.40;;;;;;4924175;29;20230;-81
2022/05/31 07:27:44;;;;;;;1.40;1.10;;;19.60;87.20;;;;;;4925948;28;20935;-80
2022/05/31 07:30:10;;;;;;;1.43;1.33;;;20.00;87.30;;;;;;4938621;29;20514;-80
2022/05/31 07:32:35;;;;;;;2.27;1.30;;;20.80;85.40;;;;;;4944397;29;20219;-82
2022/05/31 07:35:01;;;;;;;8.67;1.30;;;21.10;83.30;;;;;;4944551;29;20202;-80
2022/05/31 07:37:27;;;;;;;1.70;1.10;;;21.40;82.60;;;;;;4958815;29;20178;-81
2022/05/31 07:39:53;;;;;;;3.97;1.27;;;20.80;82.90;;;;;;4912703;29;20180;-81
2022/05/31 07:42:18;;;;;;;1.40;1.20;;;21.00;83.40;;;;;;4940101;29;20427;-81
2022/05/31 07:44:44;;;;;;;4.37;1.23;;;21.30;83.20;;;;;;4923393;29;20172;-81
2022/05/31 07:47:09;;;;;;;1.90;1.20;;;20.30;85.20;;;;;;4922894;29;20210;-81
2022/05/31 07:49:35;;;;;;;8.40;1.87;;;20.90;84.10;;;;;;4949833;29;20666;-81
2022/05/31 07:52:00;;;;;;;5.07;1.17;;;21.20;84.40;;;;;;4942032;29;20190;-80
2022/05/31 07:54:30;;;;;;;1.77;1.27;;;21.60;83.80;;;;;;4939649;29;20267;-80
2022/05/31 07:56:56;;;;;;;1.47;1.27;;;21.40;80.60;;;;;;4942876;29;20711;-80
2022/05/31 07:59:21;;;;;;;1.40;0.90;;;21.90;80.70;;;;;;4943881;29;20435;-80
2022/05/31 08:01:46;;;;;;;2.17;1.30;;;22.20;80.90;;;;;;4942983;29;20258;-80
2022/05/31 08:04:13;;;;;;;1.83;1.20;;;22.50;80.30;;;;;;4943144;29;20223;-80
2022/05/31 08:06:39;;;;;;;1.73;1.03;;;23.00;77.70;;;;;;4943418;29;20558;-80
2022/05/31 08:09:05;;;;;;;1.70;1.20;;;22.10;80.10;;;;;;4960450;29;20426;-80
2022/05/31 08:11:32;;;;;;;1.17;1.00;;;23.10;79.70;;;;;;4962997;29;20274;-80
2022/05/31 08:13:58;;;;;;;2.47;1.07;;;23.50;75.90;;;;;;4961954;29;20639;-80
2022/05/31 08:16:26;;;;;;;6.13;1.30;;;23.50;78.00;;;;;;4962007;29;20482;-80
2022/05/31 08:18:54;;;;;;;1.27;0.97;;;23.10;75.60;;;;;;4945112;29;20631;-80
2022/05/31 08:21:27;;;;;;;1.40;0.90;;;22.70;76.30;;;;;;4961289;29;20449;-80
2022/05/31 08:23:54;;;;;;;1.57;1.00;;;22.60;74.80;;;;;;4961613;29;20446;-80
2022/05/31 08:26:19;;;;;;;8.00;1.43;;;21.80;78.70;;;;;;4962675;29;20458;-80
2022/05/31 08:28:44;;;;;;;2.17;1.10;;;20.20;82.10;;;;;;4944470;28;20915;-80
2022/05/31 08:31:12;;;;;;;4.03;1.27;;;19.20;83.90;;;;;;4938876;29;20230;-79
2022/05/31 08:33:41;;;;;;;1.20;1.00;;;18.70;84.10;;;;;;4941388;28;20171;-80
2022/05/31 08:36:08;;;;;;;7.00;1.30;;;18.90;83.10;;;;;;4926780;29;20494;-80
2022/05/31 08:38:34;;;;;;;3.67;1.20;;;18.50;84.70;;;;;;4925978;29;20835;-79
2022/05/31 08:41:20;;;;;;;3.20;1.03;;;18.80;84.20;;;;;;4927470;29;20448;-80
2022/05/31 08:43:46;;;;;;;2.00;1.13;;;19.80;86.20;;;;;;4927589;29;20179;-80
2022/05/31 08:46:27;;;;;;;2.17;1.07;;;20.50;80.40;;;;;;4944194;29;20466;-80
2022/05/31 08:49:20;;;;;;;5.47;1.10;;;20.70;77.30;;;;;;4949725;29;20210;-80
2022/05/31 08:52:03;;;;;;;2.37;1.10;;;20.60;80.40;;;;;;4908577;29;20454;-79
2022/05/31 08:57:41;;;;;;;1.10;1.00;;;19.60;80.00;;;;;;4945419;29;20434;-79
2022/05/31 09:00:19;;;;;;;3.40;1.20;;;19.30;81.30;;;;;;4944908;29;20813;-79
2022/05/31 09:03:00;;;;;;;3.13;1.20;;;20.20;80.80;;;;;;4928554;29;20487;-79
2022/05/31 09:05:35;;;;;;;1.83;1.17;;;20.60;80.20;;;;;;4955258;29;20462;-77
2022/05/31 09:08:32;;;;;;;3.80;1.53;;;20.10;80.10;;;;;;4939215;29;20432;-78
2022/05/31 09:11:11;;;;;;;1.10;0.90;;;19.20;82.50;;;;;;4959105;29;20946;-77
2022/05/31 09:13:39;;;;;;;1.40;1.00;;;19.40;82.30;;;;;;4968121;29;20414;-77
2022/05/31 09:16:23;;;;;;;5.03;0.90;;;19.90;81.90;;;;;;4956506;29;20418;-77
2022/05/31 09:18:58;;;;;;;2.00;1.00;;;20.30;81.00;;;;;;4945633;29;20426;-77
2022/05/31 09:21:34;;;;;;;3.13;1.20;;;20.60;80.20;;;;;;4961775;29;20469;-77
2022/05/31 09:24:00;;;;;;;1.47;1.07;;;21.80;77.10;;;;;;4939216;29;20432;-80
2022/05/31 09:26:41;;;;;;;1.53;0.90;;;22.20;74.80;;;;;;4956342;29;20482;-77
2022/05/31 09:29:23;;;;;;;1.60;1.03;;;22.00;75.60;;;;;;4955734;29;20796;-78
2022/05/31 09:32:01;;;;;;;1.20;1.10;;;21.10;76.10;;;;;;4955991;29;20446;-77
2022/05/31 09:34:43;;;;;;;3.00;1.10;;;20.80;74.60;;;;;;4956237;29;20406;-77
2022/05/31 09:37:45;;;;;;;1.60;0.90;;;20.70;77.60;;;;;;4933334;28;20436;-78
2022/05/31 09:40:24;;;;;;;2.40;1.07;;;21.40;73.20;;;;;;4933493;28;20540;-82
2022/05/31 09:43:10;;;;;;;1.20;0.90;;;21.50;76.50;;;;;;4917147;29;20435;-77
2022/05/31 09:45:41;;;;;;;2.53;0.90;;;21.20;76.40;;;;;;4937838;28;20910;-78
2022/05/31 09:48:07;;;;;;;2.60;1.10;;;20.10;76.90;;;;;;4935364;28;20503;-76
2022/05/31 09:50:32;;;;;;;3.50;1.30;;;19.60;74.40;;;;;;4936530;29;20494;-77
2022/05/31 09:52:59;;;;;;;3.10;1.10;;;19.40;78.20;;;;;;4936702;29;20188;-79
2022/05/31 09:58:22;;;;;;;1.77;0.90;;;19.30;75.60;;;;;;4936540;29;20553;-76
2022/05/31 10:01:03;;;;;;;2.50;1.47;;;20.20;79.20;;;;;;4936246;29;20530;-76
2022/05/31 10:03:44;;;;;;;1.87;1.10;;;20.80;74.60;;;;;;4936827;29;21097;-77
2022/05/31 10:06:28;;;;;;;2.90;1.07;;;20.50;74.70;;;;;;4919047;29;20485;-77
2022/05/31 10:08:56;;;;;;;2.00;1.13;;;20.50;77.40;;;;;;4920055;29;20767;-78
2022/05/31 10:11:37;;;;;;;3.97;1.30;;;20.00;77.90;;;;;;4919850;29;20548;-79
2022/05/31 10:14:25;;;;;;;3.43;1.20;;;19.80;79.90;;;;;;4936168;29;20435;-77
2022/05/31 10:16:51;;;;;;;3.00;1.17;;;19.50;79.50;;;;;;4947811;29;20889;-80
2022/05/31 10:19:30;;;;;;;2.07;1.10;;;19.30;83.10;;;;;;4930281;29;20431;-80
2022/05/31 14:19:57;;;;;;;2.80;1.20;;;20.30;72.50;;;;;;5328647;23;21003;-80
2022/05/31 14:22:27;;;;;;;2.87;1.40;;;20.10;72.40;;;;;;4923528;29;20440;-81
2022/05/31 14:24:57;;;;;;;2.57;1.20;;;20.30;75.40;;;;;;4938901;29;20168;-81
2022/05/31 14:27:26;;;;;;;1.37;1.20;;;20.80;72.60;;;;;;4938868;29;20862;-81
2022/05/31 14:30:08;;;;;;;1.60;1.10;;;21.40;70.90;;;;;;4937930;29;20435;-81
2022/05/31 14:32:44;;;;;;;2.03;1.20;;;21.40;69.40;;;;;;4938443;29;20447;-80
2022/05/31 14:35:26;;;;;;;2.23;0.90;;;20.70;71.50;;;;;;4938284;29;20427;-80
2022/05/31 14:37:53;;;;;;;1.57;1.10;;;20.50;72.00;;;;;;4937264;29;20495;-80
2022/05/31 14:40:27;;;;;;;2.37;1.20;;;19.90;71.80;;;;;;4921391;29;20434;-78
2022/05/31 14:43:04;;;;;;;3.03;1.33;;;19.40;74.70;;;;;;4937166;29;20419;-79
2022/05/31 14:45:37;;;;;;;2.17;1.20;;;19.20;74.60;;;;;;4937728;29;20502;-80
2022/05/31 14:48:42;;;;;;;3.03;1.50;;;19.30;74.10;;;;;;4936226;29;20443;-79
2022/05/31 14:51:22;;;;;;;3.90;1.37;;;19.40;73.20;;;;;;4937065;29;20431;-79
2022/05/31 14:53:53;;;;;;;1.37;1.00;;;19.30;74.20;;;;;;4937455;29;20450;-79
2022/05/31 14:56:22;;;;;;;1.50;1.10;;;19.40;73.70;;;;;;4937922;29;20884;-79
2022/05/31 14:58:57;;;;;;;1.63;0.97;;;19.40;73.40;;;;;;4938158;29;20418;-79
2022/05/31 15:01:45;;;;;;;1.90;1.03;;;19.30;74.90;;;;;;4937982;29;21000;-79
2022/05/31 15:04:22;;;;;;;2.80;1.13;;;19.30;75.90;;;;;;4936726;29;20399;-78
2022/05/31 15:07:12;;;;;;;1.87;1.20;;;19.20;74.80;;;;;;4936679;29;21002;-78
2022/05/31 15:09:38;;;;;;;1.93;1.20;;;19.50;75.60;;;;;;4933342;29;20432;-78
2022/05/31 15:20:42;;;;;;;2.40;1.97;;;20.40;74.70;;;;;;4928309;29;20455;-79
2022/05/31 15:23:10;;;;;;;1.47;1.00;;;20.00;77.50;;;;;;4912980;29;20432;-80
2022/05/31 15:25:36;;;;;;;3.30;1.00;;;19.60;77.60;;;;;;4922078;29;20872;-79
2022/05/31 15:28:02;;;;;;;1.87;1.00;;;19.50;77.20;;;;;;4903202;29;20435;-78
2022/05/31 15:30:28;;;;;;;4.03;1.30;;;19.10;78.00;;;;;;4904491;29;20176;-79
2022/05/31 15:32:54;;;;;;;3.23;1.43;;;;;;;;;;4904818;29;20554;-79
2022/05/31 15:35:20;;;;;;;1.83;1.20;;;18.80;78.50;;;;;;4932667;29;20190;-79
2022/05/31 15:37:50;;;;;;;20.70;14.30;;;18.70;80.40;;;;;;4938170;29;20175;-79
2022/05/31 15:40:18;;;;;;;2.37;2.17;;;18.70;80.70;;;;;;4933973;29;20511;-79
2022/05/31 15:42:43;;;;;;;3.00;1.77;;;18.70;82.10;;;;;;4946047;29;20507;-81
2022/05/31 15:45:12;;;;;;;3.80;2.07;;;18.60;82.00;;;;;;4943409;29;20429;-82
2022/05/31 15:47:38;;;;;;;2.43;2.10;;;18.50;83.00;;;;;;4927813;29;20726;-81
2022/05/31 15:50:05;;;;;;;6.40;2.63;;;18.40;83.00;;;;;;4935508;29;20416;-81
2022/05/31 15:52:44;;;;;;;3.30;2.73;;;18.40;85.20;;;;;;4929024;29;20691;-81
2022/05/31 15:55:15;;;;;;;1.97;1.40;;;18.40;85.00;;;;;;4920928;29;20487;-81
2022/05/31 15:57:43;;;;;;;7.70;1.43;;;18.70;83.90;;;;;;4922009;29;20443;-80
2022/05/31 16:00:14;;;;;;;4.10;1.70;;;18.80;82.10;;;;;;4929364;29;20478;-80
2022/05/31 16:02:41;;;;;;;2.27;1.53;;;18.80;82.50;;;;;;4935676;29;20455;-81
2022/05/31 16:05:07;;;;;;;2.80;1.47;;;18.70;80.70;;;;;;4895149;29;20436;-80
2022/05/31 16:07:39;;;;;;;1.93;1.40;;;18.60;81.80;;;;;;4906386;29;20478;-79
2022/05/31 16:10:10;;;;;;;1.57;1.30;;;18.40;83.50;;;;;;4923941;29;20468;-79
2022/05/31 16:12:36;;;;;;;1.83;1.30;;;18.40;84.20;;;;;;4930522;29;20471;-79
2022/05/31 16:15:03;;;;;;;1.60;1.10;;;18.30;83.40;;;;;;4939763;29;20422;-80
2022/05/31 16:17:28;;;;;;;4.80;1.20;;;18.30;83.40;;;;;;4940407;29;20514;-79
2022/05/31 16:19:54;;;;;;;4.23;1.50;;;18.20;84.00;;;;;;4941232;29;20478;-80
2022/05/31 16:22:23;;;;;;;3.23;1.87;;;18.20;85.50;;;;;;4942773;29;20695;-79
2022/05/31 16:24:49;;;;;;;9.53;1.40;;;18.30;85.20;;;;;;4945198;29;20550;-79
2022/05/31 16:27:15;;;;;;;3.37;1.53;;;18.30;84.10;;;;;;4943868;29;20515;-81
2022/05/31 16:29:41;;;;;;;2.57;1.37;;;18.10;85.20;;;;;;4945080;29;20272;-80
2022/05/31 16:32:11;;;;;;;2.63;1.70;;;18.00;83.90;;;;;;4913474;29;20439;-79
2022/05/31 16:34:36;;;;;;;5.27;1.67;;;17.90;84.70;;;;;;4924627;29;20440;-79
2022/05/31 16:41:10;;;;;;;2.73;1.50;;;17.80;85.20;;;;;;4923502;29;20506;-79
2022/05/31 16:42:33;;;;;;;1.83;1.73;;;17.80;86.40;;;;;;4943651;29;20454;-80
2022/05/31 16:44:59;;;;;;;7.30;1.47;;;17.80;85.90;;;;;;4937441;29;20431;-80
2022/05/31 16:47:24;;;;;;;2.37;1.47;;;17.80;86.00;;;;;;4958465;28;20222;-80
2022/05/31 16:49:50;;;;;;;2.60;1.57;;;17.80;87.40;;;;;;4944391;29;20187;-80
2022/05/31 16:52:15;;;;;;;2.93;1.70;;;17.80;87.30;;;;;;4944296;29;20262;-80
2022/05/31 16:54:41;;;;;;;3.47;1.37;;;17.70;86.80;;;;;;4960763;28;20176;-79
2022/05/31 16:57:08;;;;;;;2.40;1.50;;;17.50;87.30;;;;;;4922847;29;20652;-80
2022/05/31 16:59:37;;;;;;;2.43;1.70;;;17.40;88.30;;;;;;4930996;29;20252;-79
2022/05/31 17:02:03;;;;;;;3.90;1.63;;;17.20;89.60;;;;;;4911284;29;20440;-80
2022/05/31 17:04:30;;;;;;;2.83;1.70;;;17.10;90.50;;;;;;4925811;29;20421;-79
2022/05/31 17:15:20;;;;;;;1.90;1.70;;;16.60;91.50;;;;;;4950127;29;20430;-80
2022/05/31 17:17:46;;;;;;;4.80;1.70;;;16.60;92.80;;;;;;4951931;29;20446;-81
2022/05/31 17:20:20;;;;;;;12.30;2.30;;;16.50;93.30;;;;;;4968161;28;20481;-80
2022/05/31 17:23:00;;;;;;;2.20;1.90;;;16.50;96.30;;;;;;4950895;29;20179;-80
2022/05/31 17:25:29;;;;;;;2.90;2.03;;;16.30;96.30;;;;;;4965974;29;20423;-81
2022/05/31 17:27:57;;;;;;;2.47;1.70;;;16.00;96.30;;;;;;4964040;29;20419;-81
2022/05/31 17:30:23;;;;;;;2.63;1.70;;;15.80;96.30;;;;;;4949670;29;20434;-84
2022/05/31 17:32:48;;;;;;;6.57;1.73;;;15.40;96.30;;;;;;4953765;28;20422;-81
2022/05/31 17:35:14;;;;;;;2.20;1.40;;;14.50;96.30;;;;;;4965961;29;20429;-81
2022/05/31 17:37:41;;;;;;;1.37;1.10;;;14.00;96.30;;;;;;4948847;29;20251;-81
2022/05/31 17:40:07;;;;;;;3.10;1.10;;;13.70;96.30;;;;;;4948151;29;20194;-81
2022/05/31 17:42:33;;;;;;;5.33;1.43;;;13.80;96.30;;;;;;4953354;29;20447;-81
2022/05/31 17:44:58;;;;;;;2.13;1.20;;;14.10;96.30;;;;;;4942196;29;20426;-81
2022/05/31 17:47:25;;;;;;;9.93;1.33;;;14.20;96.30;;;;;;4961226;29;20206;-81
2022/05/31 17:49:50;;;;;;;1.87;1.20;;;14.20;96.30;;;;;;4951332;28;20181;-79
2022/05/31 17:52:16;;;;;;;4.23;1.33;;;14.10;96.30;;;;;;4956831;29;20533;-79
2022/05/31 17:54:42;;;;;;;1.10;1.00;;;14.10;96.30;;;;;;4954550;28;20518;-80
2022/05/31 17:57:09;;;;;;;8.80;1.47;;;14.10;96.30;;;;;;4946966;29;20453;-80
2022/05/31 17:59:35;;;;;;;4.00;1.60;;;14.00;96.30;;;;;;4937189;29;20442;-80
2022/05/31 18:02:03;;;;;;;10.40;1.50;;;13.90;96.30;;;;;;4921012;29;20451;-82
2022/05/31 18:04:28;;;;;;;2.27;1.47;;;13.80;96.30;;;;;;4951426;28;20786;-80
2022/05/31 18:06:55;;;;;;;3.07;1.23;;;13.70;96.30;;;;;;4976396;28;20457;-81
2022/05/31 18:09:37;;;;;;;4.07;1.70;;;13.60;96.30;;;;;;4957914;28;20537;-81
2022/05/31 18:12:03;;;;;;;2.37;1.50;;;13.60;96.30;;;;;;4956654;29;20527;-82
2022/05/31 18:14:29;;;;;;;2.80;1.80;;;13.50;96.30;;;;;;4946336;29;20462;-84
2022/05/31 18:16:55;;;;;;;2.27;1.30;;;13.30;96.30;;;;;;4940609;29;20424;-84
2022/05/31 18:19:20;;;;;;;4.03;1.67;;;13.20;96.30;;;;;;4974666;28;20195;-83
2022/05/31 18:21:46;;;;;;;2.40;1.23;;;13.20;96.30;;;;;;4947283;29;20230;-84
2022/05/31 18:24:22;;;;;;;3.53;1.60;;;13.20;96.30;;;;;;4977895;28;20179;-84
2022/05/31 18:26:51;;;;;;;3.50;1.40;;;13.20;96.30;;;;;;4958326;29;20462;-81
2022/05/31 18:29:39;;;;;;;2.50;1.50;;;13.20;96.30;;;;;;4942357;29;20526;-79
2022/05/31 18:32:26;;;;;;;1.93;1.20;;;13.10;96.30;;;;;;4942534;29;20434;-79
2022/05/31 18:34:56;;;;;;;2.20;1.23;;;12.90;96.30;;;;;;4959300;29;20419;-79
2022/05/31 18:42:42;;;;;;;2.80;1.30;;;12.60;96.30;;;;;;4960207;29;20876;-80
2022/05/31 18:45:17;;;;;;;1.50;1.40;;;12.40;96.30;;;;;;4960221;29;20430;-80
2022/05/31 18:47:45;;;;;;;2.27;1.77;;;12.20;96.30;;;;;;4962635;29;20471;-78
2022/05/31 18:50:11;;;;;;;1.33;1.20;;;12.10;96.30;;;;;;4949128;29;20423;-82
2022/05/31 18:52:36;;;;;;;1.97;1.60;;;11.80;96.30;;;;;;4946239;29;20438;-81
2022/05/31 18:55:04;;;;;;;4.50;1.80;;;11.70;96.30;;;;;;4964444;29;20776;-82
2022/05/31 18:57:30;;;;;;;1.90;1.70;;;11.70;96.30;;;;;;4947510;29;20215;-82
2022/05/31 18:59:57;;;;;;;2.33;1.90;;;11.80;96.30;;;;;;4964334;29;20415;-81
2022/05/31 19:02:34;;;;;;;1.50;1.40;;;11.80;96.30;;;;;;4965065;28;20934;-81
2022/05/31 19:05:05;;;;;;;2.03;1.60;;;11.90;96.30;;;;;;4949205;29;20418;-80
2022/05/31 19:07:32;;;;;;;1.87;1.40;;;12.00;96.30;;;;;;4966355;29;20455;-81
2022/05/31 19:09:57;;;;;;;3.33;2.43;;;12.00;96.30;;;;;;4967331;28;20446;-81
2022/05/31 19:12:24;;;;;;;5.70;1.67;;;12.00;96.30;;;;;;4950076;29;20446;-81
2022/05/31 19:14:50;;;;;;;2.87;1.70;;;11.90;96.30;;;;;;4964490;29;20171;-79
2022/05/31 19:17:16;;;;;;;5.27;1.87;;;11.90;96.30;;;;;;4944269;29;20438;-78
2022/05/31 19:19:44;;;;;;;6.50;1.83;;;11.80;96.30;;;;;;4947410;29;20199;-81
2022/05/31 19:22:10;;;;;;;3.00;1.90;;;11.70;96.30;;;;;;4964417;29;20803;-81
2022/05/31 19:24:35;;;;;;;2.47;1.77;;;11.70;96.30;;;;;;4964333;29;20502;-81
2022/05/31 19:27:01;;;;;;;1.80;1.70;;;11.70;96.30;;;;;;4944224;29;20205;-81
2022/05/31 19:29:27;;;;;;;3.37;1.70;;;11.70;96.30;;;;;;4944577;29;20174;-81
2022/05/31 19:31:55;;;;;;;2.90;1.67;;;11.60;96.30;;;;;;4960976;29;20242;-80
2022/05/31 19:34:44;;;;;;;4.47;1.67;;;11.50;96.30;;;;;;4960370;28;20167;-79
2022/05/31 19:37:11;;;;;;;5.23;1.60;;;11.40;96.30;;;;;;4954819;29;20899;-78
2022/05/31 19:39:37;;;;;;;2.23;1.70;;;11.20;96.30;;;;;;4937330;29;20511;-78
2022/05/31 19:42:06;;;;;;;1.87;1.77;;;11.00;96.30;;;;;;4937165;29;20454;-80
2022/05/31 19:44:32;;;;;;;3.30;1.87;;;10.90;96.30;;;;;;4937279;29;20175;-80
2022/05/31 19:46:57;;;;;;;1.83;1.73;;;10.80;96.30;;;;;;4954067;29;20453;-79
2022/05/31 19:49:23;;;;;;;3.53;1.70;;;10.80;96.30;;;;;;4954072;29;20206;-79
2022/05/31 19:51:48;;;;;;;2.53;1.73;;;10.70;96.30;;;;;;4954123;29;20199;-79
2022/05/31 19:54:16;;;;;;;2.73;2.53;;;10.70;96.30;;;;;;4954486;29;20182;-77
2022/05/31 19:56:42;;;;;;;4.73;2.53;;;10.70;96.30;;;;;;4953721;29;20795;-79
2022/05/31 19:59:08;;;;;;;3.60;2.30;;;10.80;96.30;;;;;;4953673;29;20422;-78
2022/05/31 20:01:33;;;;;;;6.50;2.77;;;10.80;96.30;;;;;;4936746;29;20444;-79
2022/05/31 20:03:59;;;;;;;3.33;2.73;;;10.90;96.30;;;;;;4936691;29;20194;-78
2022/05/31 20:06:25;;;;;;;5.83;2.30;;;10.90;96.30;;;;;;4953806;29;20202;-78
2022/05/31 20:11:36;;;;;;;3.93;2.63;;;10.90;96.30;;;;;;4953893;29;20604;-78
2022/05/31 20:14:03;;;;;;;6.10;2.70;;;10.90;96.30;;;;;;4953688;28;20505;-79
2022/05/31 20:16:36;;;;;;;6.63;2.70;;;10.80;96.30;;;;;;4953709;29;20421;-78
2022/05/31 20:19:20;;;;;;;3.33;2.30;;;10.80;96.30;;;;;;4933134;29;20443;-78
2022/05/31 20:21:52;;;;;;;5.20;2.93;;;10.70;96.30;;;;;;4939779;29;20942;-79
2022/05/31 20:24:21;;;;;;;3.70;2.67;;;10.60;96.30;;;;;;4956836;28;21072;-78
2022/05/31 20:26:47;;;;;;;3.30;3.00;;;10.50;96.30;;;;;;4957187;28;20501;-79
2022/05/31 20:29:15;;;;;;;3.90;2.73;;;10.50;96.30;;;;;;4972096;28;20414;-78
2022/05/31 20:31:42;;;;;;;6.00;2.57;;;10.40;96.30;;;;;;4957405;29;21025;-78
2022/05/31 20:34:08;;;;;;;3.07;2.60;;;10.40;96.30;;;;;;4957612;29;20764;-78
2022/05/31 20:36:35;;;;;;;4.23;3.13;;;10.40;96.30;;;;;;4957281;29;20422;-78
2022/05/31 20:39:04;;;;;;;4.13;3.37;;;10.20;96.30;;;;;;4957027;29;20422;-78
2022/05/31 20:41:32;;;;;;;10.40;3.30;;;10.20;96.30;;;;;;4957083;28;20426;-78
2022/05/31 20:43:58;;;;;;;3.13;2.83;;;10.10;96.30;;;;;;4972035;28;20411;-78
2022/05/31 20:46:24;;;;;;;3.63;3.33;;;10.00;96.30;;;;;;4971784;28;20824;-79
2022/05/31 20:48:49;;;;;;;5.63;3.20;;;10.00;96.30;;;;;;4956885;29;20175;-78
2022/05/31 20:51:16;;;;;;;3.70;3.40;;;9.90;96.30;;;;;;4956945;28;20187;-78
2022/05/31 20:53:42;;;;;;;3.30;3.00;;;9.80;96.30;;;;;;4956970;29;20175;-78
2022/05/31 20:56:09;;;;;;;3.50;3.20;;;9.70;96.30;;;;;;4971887;28;20477;-78
2022/05/31 20:58:36;;;;;;;4.27;3.87;;;9.70;96.30;;;;;;4956659;29;20418;-77
2022/05/31 21:01:03;;;;;;;6.20;4.53;;;9.80;96.30;;;;;;4971435;28;20461;-78
2022/05/31 21:03:28;;;;;;;5.90;4.20;;;9.90;96.30;;;;;;4956790;29;20411;-78
2022/05/31 21:05:55;;;;;;;9.77;4.33;;;9.90;96.30;;;;;;4956729;28;21024;-78
2022/05/31 21:08:20;;;;;;;5.80;5.30;;;10.00;96.30;;;;;;4971347;28;20179;-78
2022/05/31 21:10:46;;;;;;;7.40;6.47;;;10.00;96.30;;;;;;4956574;29;20792;-77
2022/05/31 21:13:21;;;;;;;9.70;7.80;;;10.00;96.30;;;;;;4971569;28;20171;-80
2022/05/31 21:15:55;;;;;;;6.60;6.10;;;10.00;96.30;;;;;;4956786;28;20583;-78
2022/05/31 21:18:22;;;;;;;6.33;5.80;;;10.00;96.30;;;;;;4956539;29;20418;-77
2022/05/31 21:20:51;;;;;;;6.17;5.67;;;10.00;96.30;;;;;;4937356;29;20475;-77
2022/05/31 21:23:17;;;;;;;7.10;6.40;;;10.00;96.30;;;;;;4937319;29;20462;-78
2022/05/31 21:25:43;;;;;;;7.20;6.60;;;10.00;96.30;;;;;;4920006;29;20828;-78
2022/05/31 21:28:12;;;;;;;7.07;6.37;;;10.00;96.30;;;;;;4919973;29;20435;-79
2022/05/31 21:30:38;;;;;;;6.90;6.20;;;10.00;96.30;;;;;;4917032;29;20583;-79
2022/05/31 21:33:04;;;;;;;7.33;6.63;;;10.00;96.30;;;;;;4929332;29;20419;-77
2022/05/31 21:35:31;;;;;;;6.73;6.10;;;10.10;96.30;;;;;;4936120;29;20407;-77
2022/05/31 21:37:59;;;;;;;6.67;5.97;;;10.00;96.30;;;;;;4936897;29;20786;-79
2022/05/31 21:43:11;;;;;;;7.00;6.40;;;10.00;96.30;;;;;;4936309;29;20482;-78
2022/05/31 21:45:37;;;;;;;7.13;6.20;;;10.00;96.30;;;;;;4936164;29;20408;-78
2022/05/31 21:48:07;;;;;;;6.90;6.30;;;9.90;96.30;;;;;;4918574;29;20451;-78
2022/05/31 21:50:37;;;;;;;6.23;5.73;;;9.90;96.30;;;;;;4935082;29;20447;-78
2022/05/31 21:53:04;;;;;;;7.60;7.00;;;9.90;96.30;;;;;;4935281;29;20426;-78
2022/05/31 21:55:32;;;;;;;7.20;6.50;;;9.90;96.30;;;;;;4936120;29;20422;-78
2022/05/31 21:57:59;;;;;;;6.03;5.53;;;10.00;96.30;;;;;;4936442;29;20911;-78
2022/05/31 22:01:02;;;;;;;6.57;6.00;;;10.00;96.30;;;;;;4936466;29;20516;-79
2022/05/31 22:03:30;;;;;;;7.17;6.00;;;10.10;96.30;;;;;;4936592;29;20411;-78
2022/05/31 22:05:57;;;;;;;6.90;6.30;;;10.10;96.30;;;;;;4936426;29;20994;-79
2022/05/31 22:08:24;;;;;;;6.83;6.23;;;10.10;96.30;;;;;;4936302;29;20418;-78
2022/05/31 22:10:51;;;;;;;10.63;6.30;;;10.00;96.30;;;;;;4936422;29;20435;-78
2022/05/31 22:13:17;;;;;;;9.20;5.93;;;10.10;96.30;;;;;;4936383;29;20415;-79
2022/05/31 22:15:43;;;;;;;6.83;6.13;;;10.10;96.30;;;;;;4936725;29;20478;-78